AirNav   Duncan Aviation - Near you to keep you flying
 
 1167 users online  

OG34 Meyer Riverside Airpark
Tigard, Oregon, USA

GOING TO TIGARD?


FAA INFORMATION EFFECTIVE 01 DECEMBER 2022

Location

FAA Identifier: OG34
Lat/Long: 45-23-59.4250N 122-49-44.3540W
45-23.990417N 122-49.739233W
45.3998403,-122.8289872
(estimated)
Elevation: 252 ft. / 77 m (estimated)
Variation: 19E (1985)
From city: 3 miles SW of TIGARD, OR
Time zone: UTC -8 (UTC -7 during Daylight Saving Time)
Zip code: 97224

Airport Operations

Airport use: Private use. Permission required prior to landing
Activation date: 05/1956
Control tower: no
ARTCC: SEATTLE CENTER
FSS: MC MINNVILLE FLIGHT SERVICE STATION
Attendance: ON CALL ON CALL
Wind indicator: yes
Segmented circle: no

Airport Communications

WX ASOS at UAO (9 nm S): PHONE 503-678-3011
WX ASOS at HIO (10 nm NW): PHONE 503-615-4314
WX ASOS at PDX (15 nm NE): PHONE (503) 493-7687
WX ASOS at VUO (15 nm NE): 135.125 (360-696-1280)
WX ASOS at MMV (18 nm SW): 135.675 (503-434-9153)

Nearby radio navigation aids

VOR radial/distance  VOR name  Freq  Var
UBGr045/6.9NEWBERG VOR/DME117.4021E
BTGr185/23.1BATTLE GROUND VORTAC116.6021E

 
NDB name  Hdg/Dist  Freq  Var  ID
BANKS131/16.635616EPND .--. -. -..

Airport Services

Airframe service: NONE
Powerplant service: NONE

Runway Information

Runway 16/34

Dimensions: 1585 x 100 ft. / 483 x 30 m
Surface: turf
RUNWAY 16  RUNWAY 34
Traffic pattern: leftleft
Obstructions: plines, 10 ft. from runwaytrees, 100 ft. from runway

Airport Ownership and Management from official FAA records

Ownership: Privately-owned
Owner: JAMES MEYER
14730 SW BEEF BEND RD
TIGARD, OR 97224
Phone 503-590-6903
Manager: JAMES MEYER
14730 SW BEEF BEND RD
TIGARD, OR 97224
Phone 503-590-6903

Airport Operational Statistics

Aircraft based on the field: 2
Single engine airplanes: 1
Helicopters: 1
    

Additional Remarks

FOR CD CTC PORTLAND APCH AT 503-493-7545.

Instrument Procedures

There are no published instrument procedures at OG34.

Some nearby airports with instrument procedures:

KUAO - Aurora State Airport (9 nm S)
KHIO - Portland-Hillsboro Airport (10 nm NW)
KPDX - Portland International Airport (15 nm NE)
KVUO - Pearson Field Airport (15 nm NE)
KMMV - Mc Minnville Municipal Airport (18 nm SW)
 
Loc | Ops | Rwys | IFR | FBO | Links
Com | Nav | Svcs | Stats | Notes
Area around OG34 (Meyer Riverside Airpark)
 
Road maps at: MapQuest Bing Google
 
Aerial photo
WARNING: Photo may not be current or correct
Aerial photo of OG34 (Meyer Riverside Airpark)
Do you have a better or more recent aerial photo of Meyer Riverside Airpark that you would like to share? If so, please send us your photo.

 
Sectional chart

 
Airport distance calculator
Flying to Meyer Riverside Airpark? Find the distance to fly.

From to OG34

Sunrise and sunset
Times for 09-Dec-2022
 Local
(UTC-8)
 Zulu
(UTC)
Morning civil twilight07:0615:06
Sunrise07:4015:40
Sunset16:2700:27
Evening civil twilight17:0101:01

Current date and time
Zulu (UTC)  10-Dec-2022 03:00:52
Local (UTC-8)  09-Dec-2022 19:00:52
 
METAR
KUAO 
9nm S 
100253Z 16006KT 10SM -RA OVC033 08/05 A2951 RMK AO2 SLP992 P0005 60012 T00780050 57040
KHIO 
10nm NW 
100253Z 10009KT 5SM RA BR BKN019 OVC026 06/05 A2950 RMK AO2 SLP990 P0013 60034 T00560050 56042
KPDX 
15nm NE 
100253Z 12016KT 6SM RA BR BKN029 OVC034 05/03 A2953 RMK AO2 SLP000 P0012 60028 T00500028 56022
KVUO 
15nm NE 
100253Z AUTO 12012KT 5SM -RA BR BKN028 OVC035 05/03 A2954 RMK AO2 SLP005 P0010 60025 T00500028 56037
KMMV 
18nm SW 
100253Z AUTO 17014G24KT 8SM -RA FEW018 BKN025 OVC037 07/04 A2948 RMK AO2 SLP984 P0002 60011 T00720044 58041
KTTD 
20nm NE 
100253Z 08019G26KT 5SM RA OVC035 04/02 A2955 RMK AO2 PK WND 09029/0203 SLP006 P0010 60020 T00440017 58032
TAF
KUAO 
9nm S 
091723Z 0918/1018 17010G22KT P6SM -RA OVC035 FM092100 15010KT P6SM -RA OVC023 FM092300 15010KT 4SM -RA BR OVC019 FM100000 11008KT 3SM -RA BR OVC021 FM100600 17011G26KT 6SM RA BR OVC027 WS020/19050KT
KHIO 
10nm NW 
091723Z 0918/1018 16009KT P6SM RA OVC012 FM092200 13011KT 3SM RA BR OVC012 FM100600 15010G22KT 6SM RA BR OVC019 WS020/19050KT FM101200 17014G27KT 4SM RA BR OVC017 WS020/19045KT FM101700 17011G20KT 5SM RA BR OVC024
KPDX 
15nm NE 
092049Z 0921/1018 12013KT P6SM -RA BKN030 OVC035 FM092300 11011KT 5SM RA BR OVC017 FM100000 10015KT 3SM +RA BR OVC020 FM100200 10015KT 4SM +RA BR OVC019 FM100400 10013KT 4SM +RA BR OVC020 WS020/18035KT FM100600 12009KT P6SM RA OVC023 WS020/19045KT
KTTD 
20nm NE 
091723Z 0918/1018 11006KT P6SM RA OVC027 FM092000 11006KT P6SM RA OVC023 FM092300 09010KT 4SM RA BR OVC026 FM100000 08016KT 3SM +RA BR OVC028 FM101200 08007KT P6SM RA OVC024 WS020/19035KT
NOTAMs
Click for the latest NOTAMs
NOTAMs are issued by the DoD/FAA and will open in a separate window not controlled by AirNav.

 

 
 

Would you like to see your business listed on this page?

 If your business provides an interesting product or service to pilots, flight crews, aircraft, or users of the Meyer Riverside Airpark, you should consider listing it here.  To start the listing process, click on the button below
 
Add a business
 

Other Pages about Meyer Riverside Airpark

Update a link
 
Copyright © AirNav, LLC. All rights reserved. Privacy Policy  Contact